Admiral — WCY6529 — position and weather

sailwx.info

Track history (hours):
 
Tides and Currents Weather Stations Pressure Air Temp Water Temp Dewpoint Dewpoint Depression Visibility Wind Speed Wind Dir Waves Ship Positions

Admiral

Owner: Crowley Marine Services, SEATTLE, WA. More information available from US FCC via Universal Licensing System and Coast Guard Vessel Documentation Center.

Last reported at 2015-May-22 20:34 UTC. Time now 2015-May-22 20:43 UTC.
Position N 33°46' W 118°13'.

; draft 5.3 m.

Type: Tug. MMSI: 366755020.

Date/timePositionNaut miles runAvg speedWind from/ knotsBaromVisibWave heightAir tempDewpointWater temp
2015-May-22 20:34N 33°46' W 118°13'2 2.3
2015-May-22 19:33N 33°43' W 118°14'3 2.7
2015-May-22 18:33N 33°44' W 118°17'0 0.0
2015-May-22 17:32N 33°44' W 118°17'1 0.6
2015-May-22 16:25N 33°44' W 118°16'5 1.8
2015-May-22 13:28N 33°44' W 118°10'5 4.4
2015-May-22 12:15N 33°45' W 118°16'1 0.6
2015-May-22 11:20N 33°45' W 118°17'0 0.3
2015-May-22 10:33N 33°45' W 118°17'2 0.2
2015-May-22 01:21N 33°44' W 118°16'0 0.6
2015-May-22 00:32N 33°43' W 118°16'1 1.3
2015-May-21 23:28N 33°44' W 118°17'0 0.0
2015-May-21 22:33N 33°44' W 118°17'0 0.0
2015-May-21 21:33N 33°44' W 118°17'0 0.0
2015-May-21 20:32N 33°44' W 118°17'0 0.0
2015-May-21 19:33N 33°44' W 118°17'0 0.0
2015-May-21 18:33N 33°44' W 118°17'0 0.0
2015-May-21 17:33N 33°44' W 118°17'0 0.0
2015-May-21 16:32N 33°44' W 118°17'0 0.0
2015-May-21 15:33N 33°44' W 118°17'2 0.9
2015-May-21 13:24N 33°46' W 118°15'1 0.1
2015-May-20 23:33N 33°46' W 118°16'1 0.3
2015-May-20 19:32N 33°44' W 118°17'0 0.0
2015-May-20 15:33N 33°44' W 118°17'1 0.3
2015-May-20 13:32N 33°45' W 118°16'0 0.2
2015-May-20 12:22N 33°45' W 118°16'1 0.1
2015-May-20 04:22N 33°44' W 118°17'0 0.0
2015-May-20 03:03N 33°44' W 118°17'3 4.7
2015-May-20 02:28N 33°43' W 118°13'2 1.9
2015-May-20 01:33N 33°45' W 118°14'0 0.5
2015-May-20 00:33N 33°45' W 118°14'3 2.3
2015-May-19 23:27N 33°44' W 118°17'1 1.3
2015-May-19 22:29N 33°43' W 118°16'3 3.4
2015-May-19 21:34N 33°45' W 118°13'1 0.7
2015-May-19 20:33N 33°46' W 118°13'3 2.5
2015-May-19 19:18N 33°44' W 118°17'1 1.2
2015-May-19 18:31N 33°45' W 118°17'1 0.7
2015-May-19 17:23N 33°45' W 118°17'1 0.6
2015-May-19 15:33N 33°44' W 118°16'0 0.1
2015-May-19 14:32N 33°44' W 118°15'3 2.7
2015-May-19 13:34N 33°45' W 118°13'1 0.5
2015-May-19 12:34N 33°45' W 118°13'2 1.5
2015-May-19 11:32N 33°43' W 118°13'0 0.0
2015-May-19 02:19N 33°44' W 118°13'1 1.4
2015-May-19 01:33N 33°45' W 118°12'0 0.4
2015-May-19 00:34N 33°45' W 118°12'4 3.3
2015-May-18 23:25N 33°44' W 118°16'2 1.8
2015-May-18 22:33N 33°45' W 118°16'3 2.6
2015-May-18 21:28N 33°43' W 118°15'2 2.4
2015-May-18 20:27N 33°44' W 118°17'0 0.0
2015-May-18 19:16N 33°44' W 118°17'0 0.0
2015-May-18 17:24N 33°44' W 118°17'3 3.7
2015-May-18 16:33N 33°45' W 118°13'0 0.0
2015-May-18 15:33N 33°45' W 118°13'0 0.4
2015-May-18 14:33N 33°45' W 118°13'1 0.1
2015-May-18 04:33N 33°45' W 118°14'3 2.9
2015-May-18 03:32N 33°43' W 118°11'1 0.5
2015-May-18 02:29N 33°44' W 118°12'3 2.3
2015-May-18 01:05N 33°44' W 118°15'1 2.6
2015-May-18 00:33N 33°45' W 118°16'2 1.6
2015-May-17 23:19N 33°43' W 118°16'4 4.6
2015-May-17 22:33N 33°46' W 118°14'2 1.6
2015-May-17 21:33N 33°45' W 118°13'1 0.6
2015-May-17 20:33N 33°44' W 118°13'1 0.8
2015-May-17 19:33N 33°45' W 118°13'0 0.0
2015-May-17 18:33N 33°45' W 118°13'1 1.3
2015-May-17 17:33N 33°46' W 118°13'3 2.6
2015-May-17 16:33N 33°44' W 118°12'5 5.2
2015-May-17 15:33N 33°41' W 118°07'5 3.6
2015-May-17 14:09N 33°44' W 118°12'1 1.3
2015-May-17 13:28N 33°43' W 118°11'0 0.2
2015-May-17 12:33N 33°44' W 118°11'1 0.8
2015-May-17 11:33N 33°44' W 118°11'2 1.7
2015-May-17 10:33N 33°44' W 118°12'1 0.1
2015-May-17 03:09N 33°44' W 118°13'0 0.2
2015-May-17 02:32N 33°44' W 118°13'3 2.5
2015-May-17 01:21N 33°45' W 118°16'0 0.1
2015-May-17 00:33N 33°45' W 118°16'1 0.6
2015-May-16 23:32N 33°44' W 118°17'0 0.0
2015-May-16 22:32N 33°44' W 118°17'0 0.0
2015-May-16 21:33N 33°44' W 118°17'0 0.0
2015-May-16 20:33N 33°44' W 118°17'1 0.7
2015-May-16 19:25N 33°44' W 118°16'1 0.4
2015-May-16 17:26N 33°44' W 118°17'0 0.0
2015-May-16 16:28N 33°44' W 118°17'2 1.7
2015-May-16 15:33N 33°46' W 118°16'1 0.2
2015-May-16 11:33N 33°45' W 118°17'0 0.0
2015-May-16 10:34N 33°45' W 118°17'3 0.4
2015-May-16 02:33N 33°46' W 118°13'0 0.0
2015-May-16 01:17N 33°46' W 118°13'0 0.3
2015-May-16 00:33N 33°46' W 118°13'2 2.3
2015-May-15 23:34N 33°44' W 118°13'1 1.0
2015-May-15 22:33N 33°45' W 118°13'0 0.3
2015-May-15 21:33N 33°45' W 118°12'3 3.1
2015-May-15 20:27N 33°43' W 118°16'1 0.5
2015-May-15 18:04N 33°44' W 118°17'0 0.0
2015-May-15 17:33N 33°44' W 118°17'0 0.0
2015-May-15 14:25N 33°44' W 118°17'1 1.3
2015-May-15 13:34N 33°44' W 118°16'1 0.6
2015-May-15 12:30N 33°44' W 118°16'2 2.4
2015-May-15 11:33N 33°46' W 118°15'1 0.8
2015-May-15 10:33N 33°45' W 118°16'1 1.0
2015-May-15 09:32N 33°44' W 118°17'0 0.0
2015-May-15 08:20N 33°44' W 118°17'0 0.0
2015-May-15 07:33N 33°44' W 118°17'0 0.0
2015-May-15 06:33N 33°44' W 118°17'0 0.0
2015-May-15 05:33N 33°44' W 118°17'0 0.0
2015-May-15 04:33N 33°44' W 118°17'0 0.0
2015-May-15 03:33N 33°44' W 118°17'0 0.0
2015-May-15 02:32N 33°44' W 118°17'0 0.0
2015-May-15 01:27N 33°44' W 118°17'2 2.0
2015-May-15 00:33N 33°43' W 118°16'1 1.2
2015-May-14 23:33N 33°44' W 118°15'1 1.3
2015-May-14 22:32N 33°44' W 118°17'2 1.7
2015-May-14 21:33N 33°46' W 118°15'2 1.6
2015-May-14 20:33N 33°44' W 118°17'0 0.0
2015-May-14 19:33N 33°44' W 118°17'3 0.6
2015-May-14 15:04N 33°44' W 118°14'2 1.4
2015-May-14 13:23N 33°43' W 118°11'2 2.6
2015-May-14 12:33N 33°45' W 118°13'0 0.2
2015-May-14 11:33N 33°45' W 118°13'3 0.3
2015-May-14 00:33N 33°46' W 118°16'0 0.3
2015-May-13 23:33N 33°46' W 118°16'1 1.3
2015-May-13 22:32N 33°44' W 118°17'0 0.0
2015-May-13 21:23N 33°44' W 118°17'3 0.8
2015-May-13 17:34N 33°45' W 118°13'1 0.6
2015-May-13 16:33N 33°45' W 118°13'1 1.4
2015-May-13 15:33N 33°44' W 118°11'1 0.9
2015-May-13 14:31N 33°43' W 118°13'3 3.3
2015-May-13 13:29N 33°45' W 118°16'1 0.1
2015-May-13 03:13N 33°44' W 118°17'0 0.0
2015-May-13 01:03N 33°44' W 118°17'1 2.2
2015-May-13 00:33N 33°44' W 118°16'0 0.4
2015-May-12 23:31N 33°44' W 118°15'0 0.2
2015-May-12 22:33N 33°44' W 118°15'0 0.0
2015-May-12 21:33N 33°44' W 118°15'  
Track history (hours):
 
Tides and Currents Weather Stations Pressure Air Temp Water Temp Dewpoint Dewpoint Depression Visibility Wind Speed Wind Dir Waves Ship Positions

Admiral

Owner: Crowley Marine Services, SEATTLE, WA. More information available from US FCC via Universal Licensing System and Coast Guard Vessel Documentation Center.

Last reported at 2015-May-22 20:34 UTC. Time now 2015-May-22 20:43 UTC.
Position N 33°46' W 118°13'.

; draft 5.3 m.

Type: Tug. MMSI: 366755020.

Date/timePositionNaut miles runAvg speedWind from/ knotsBaromVisibWave heightAir tempDewpointWater temp
2015-May-22 20:34N 33°46' W 118°13'2 2.3
2015-May-22 19:33N 33°43' W 118°14'3 2.7
2015-May-22 18:33N 33°44' W 118°17'0 0.0
2015-May-22 17:32N 33°44' W 118°17'1 0.6
2015-May-22 16:25N 33°44' W 118°16'5 1.8
2015-May-22 13:28N 33°44' W 118°10'5 4.4
2015-May-22 12:15N 33°45' W 118°16'1 0.6
2015-May-22 11:20N 33°45' W 118°17'0 0.3
2015-May-22 10:33N 33°45' W 118°17'2 0.2
2015-May-22 01:21N 33°44' W 118°16'0 0.6
2015-May-22 00:32N 33°43' W 118°16'1 1.3
2015-May-21 23:28N 33°44' W 118°17'0 0.0
2015-May-21 22:33N 33°44' W 118°17'0 0.0
2015-May-21 21:33N 33°44' W 118°17'0 0.0
2015-May-21 20:32N 33°44' W 118°17'0 0.0
2015-May-21 19:33N 33°44' W 118°17'0 0.0
2015-May-21 18:33N 33°44' W 118°17'0 0.0
2015-May-21 17:33N 33°44' W 118°17'0 0.0
2015-May-21 16:32N 33°44' W 118°17'0 0.0
2015-May-21 15:33N 33°44' W 118°17'2 0.9
2015-May-21 13:24N 33°46' W 118°15'1 0.1
2015-May-20 23:33N 33°46' W 118°16'1 0.3
2015-May-20 19:32N 33°44' W 118°17'0 0.0
2015-May-20 15:33N 33°44' W 118°17'1 0.3
2015-May-20 13:32N 33°45' W 118°16'0 0.2
2015-May-20 12:22N 33°45' W 118°16'1 0.1
2015-May-20 04:22N 33°44' W 118°17'0 0.0
2015-May-20 03:03N 33°44' W 118°17'3 4.7
2015-May-20 02:28N 33°43' W 118°13'2 1.9
2015-May-20 01:33N 33°45' W 118°14'0 0.5
2015-May-20 00:33N 33°45' W 118°14'3 2.3
2015-May-19 23:27N 33°44' W 118°17'1 1.3
2015-May-19 22:29N 33°43' W 118°16'3 3.4
2015-May-19 21:34N 33°45' W 118°13'1 0.7
2015-May-19 20:33N 33°46' W 118°13'3 2.5
2015-May-19 19:18N 33°44' W 118°17'1 1.2
2015-May-19 18:31N 33°45' W 118°17'1 0.7
2015-May-19 17:23N 33°45' W 118°17'1 0.6
2015-May-19 15:33N 33°44' W 118°16'0 0.1
2015-May-19 14:32N 33°44' W 118°15'3 2.7
2015-May-19 13:34N 33°45' W 118°13'1 0.5
2015-May-19 12:34N 33°45' W 118°13'2 1.5
2015-May-19 11:32N 33°43' W 118°13'0 0.0
2015-May-19 02:19N 33°44' W 118°13'1 1.4
2015-May-19 01:33N 33°45' W 118°12'0 0.4
2015-May-19 00:34N 33°45' W 118°12'4 3.3
2015-May-18 23:25N 33°44' W 118°16'2 1.8
2015-May-18 22:33N 33°45' W 118°16'3 2.6
2015-May-18 21:28N 33°43' W 118°15'2 2.4
2015-May-18 20:27N 33°44' W 118°17'0 0.0
2015-May-18 19:16N 33°44' W 118°17'0 0.0
2015-May-18 17:24N 33°44' W 118°17'3 3.7
2015-May-18 16:33N 33°45' W 118°13'0 0.0
2015-May-18 15:33N 33°45' W 118°13'0 0.4
2015-May-18 14:33N 33°45' W 118°13'1 0.1
2015-May-18 04:33N 33°45' W 118°14'3 2.9
2015-May-18 03:32N 33°43' W 118°11'1 0.5
2015-May-18 02:29N 33°44' W 118°12'3 2.3
2015-May-18 01:05N 33°44' W 118°15'1 2.6
2015-May-18 00:33N 33°45' W 118°16'2 1.6
2015-May-17 23:19N 33°43' W 118°16'4 4.6
2015-May-17 22:33N 33°46' W 118°14'2 1.6
2015-May-17 21:33N 33°45' W 118°13'1 0.6
2015-May-17 20:33N 33°44' W 118°13'1 0.8
2015-May-17 19:33N 33°45' W 118°13'0 0.0
2015-May-17 18:33N 33°45' W 118°13'1 1.3
2015-May-17 17:33N 33°46' W 118°13'3 2.6
2015-May-17 16:33N 33°44' W 118°12'5 5.2
2015-May-17 15:33N 33°41' W 118°07'5 3.6
2015-May-17 14:09N 33°44' W 118°12'1 1.3
2015-May-17 13:28N 33°43' W 118°11'0 0.2
2015-May-17 12:33N 33°44' W 118°11'1 0.8
2015-May-17 11:33N 33°44' W 118°11'2 1.7
2015-May-17 10:33N 33°44' W 118°12'1 0.1
2015-May-17 03:09N 33°44' W 118°13'0 0.2
2015-May-17 02:32N 33°44' W 118°13'3 2.5
2015-May-17 01:21N 33°45' W 118°16'0 0.1
2015-May-17 00:33N 33°45' W 118°16'1 0.6
2015-May-16 23:32N 33°44' W 118°17'0 0.0
2015-May-16 22:32N 33°44' W 118°17'0 0.0
2015-May-16 21:33N 33°44' W 118°17'0 0.0
2015-May-16 20:33N 33°44' W 118°17'1 0.7
2015-May-16 19:25N 33°44' W 118°16'1 0.4
2015-May-16 17:26N 33°44' W 118°17'0 0.0
2015-May-16 16:28N 33°44' W 118°17'2 1.7
2015-May-16 15:33N 33°46' W 118°16'1 0.2
2015-May-16 11:33N 33°45' W 118°17'0 0.0
2015-May-16 10:34N 33°45' W 118°17'3 0.4
2015-May-16 02:33N 33°46' W 118°13'0 0.0
2015-May-16 01:17N 33°46' W 118°13'0 0.3
2015-May-16 00:33N 33°46' W 118°13'2 2.3
2015-May-15 23:34N 33°44' W 118°13'1 1.0
2015-May-15 22:33N 33°45' W 118°13'0 0.3
2015-May-15 21:33N 33°45' W 118°12'3 3.1
2015-May-15 20:27N 33°43' W 118°16'1 0.5
2015-May-15 18:04N 33°44' W 118°17'0 0.0
2015-May-15 17:33N 33°44' W 118°17'0 0.0
2015-May-15 14:25N 33°44' W 118°17'1 1.3
2015-May-15 13:34N 33°44' W 118°16'1 0.6
2015-May-15 12:30N 33°44' W 118°16'2 2.4
2015-May-15 11:33N 33°46' W 118°15'1 0.8
2015-May-15 10:33N 33°45' W 118°16'1 1.0
2015-May-15 09:32N 33°44' W 118°17'0 0.0
2015-May-15 08:20N 33°44' W 118°17'0 0.0
2015-May-15 07:33N 33°44' W 118°17'0 0.0
2015-May-15 06:33N 33°44' W 118°17'0 0.0
2015-May-15 05:33N 33°44' W 118°17'0 0.0
2015-May-15 04:33N 33°44' W 118°17'0 0.0
2015-May-15 03:33N 33°44' W 118°17'0 0.0
2015-May-15 02:32N 33°44' W 118°17'0 0.0
2015-May-15 01:27N 33°44' W 118°17'2 2.0
2015-May-15 00:33N 33°43' W 118°16'1 1.2
2015-May-14 23:33N 33°44' W 118°15'1 1.3
2015-May-14 22:32N 33°44' W 118°17'2 1.7
2015-May-14 21:33N 33°46' W 118°15'2 1.6
2015-May-14 20:33N 33°44' W 118°17'0 0.0
2015-May-14 19:33N 33°44' W 118°17'3 0.6
2015-May-14 15:04N 33°44' W 118°14'2 1.4
2015-May-14 13:23N 33°43' W 118°11'2 2.6
2015-May-14 12:33N 33°45' W 118°13'0 0.2
2015-May-14 11:33N 33°45' W 118°13'3 0.3
2015-May-14 00:33N 33°46' W 118°16'0 0.3
2015-May-13 23:33N 33°46' W 118°16'1 1.3
2015-May-13 22:32N 33°44' W 118°17'0 0.0
2015-May-13 21:23N 33°44' W 118°17'3 0.8
2015-May-13 17:34N 33°45' W 118°13'1 0.6
2015-May-13 16:33N 33°45' W 118°13'1 1.4
2015-May-13 15:33N 33°44' W 118°11'1 0.9
2015-May-13 14:31N 33°43' W 118°13'3 3.3
2015-May-13 13:29N 33°45' W 118°16'1 0.1
2015-May-13 03:13N 33°44' W 118°17'0 0.0
2015-May-13 01:03N 33°44' W 118°17'1 2.2
2015-May-13 00:33N 33°44' W 118°16'0 0.4
2015-May-12 23:31N 33°44' W 118°15'0 0.2
2015-May-12 22:33N 33°44' W 118°15'0 0.0
2015-May-12 21:33N 33°44' W 118°15'  

Dump ship's entire track history